Aérodrome :
LOGIN :

S'inscrire | Disclaimer

   EN    FR    IT 

 










Légende :    VFR   VFR Marginal   IFR   IFR Intensif   IFR Très Intensif
Visi : 
Plafond : 
>= 8 km
>= 3000ft
5 à 8 km
1000 à 3000 ft
1500m à 5 km
500 à 1000 ft
800 à 1500m
200 à 500 ft
< 800m
< 200 ft
Symboles :   Orages  Brouillard  Fortes neiges  Fortes précipitations  Vent > 20 kt
SIGMETs :   Divers  Orages  Givrage  Turbulence  Onde Orograph.  Cendres Volcan.






- Altitude de l'aérodrome : 1516 ft
- Code IATA : AGB


EDMA - Augsburg

DERNIER METAR :
  • 280120Z AUTO 08003KT 020V110 4700 // BKN002/// OVC005/// M02/M02 Q1020

METARs EXPIRÉS :
  • 280050Z AUTO 00000KT 2300 // BKN001/// OVC005/// M01/M02 Q1020
  • 280020Z AUTO VRB02KT 2100 // BKN001/// OVC005/// M01/M02 Q1020
  • 272350Z AUTO VRB02KT 1200 R25/P2000N // SCT001/// OVC005/// M01/M02 Q1020
  • 272320Z AUTO 13004KT 090V160 1900 // SCT002/// OVC005/// M01/M02 Q1020
  • 272250Z AUTO 06003KT 1200 R25/P2000N // VV002 M01/M01 Q1020
  • 272220Z AUTO 09004KT 1700 // VV002 M01/M02 Q1020

TAF TAF EDMA
Valide du 27 à 18h jusqu'au 28 à 03h UTC


271700Z 2718/2803 07004KT 0800 FZFG VV002
BECMG 2718/2721 0400 FZFG VV001



MET'MAP, la Météo Aéronautique d'un coup d'oeil ! - Copyright ORBIFLY Décembre 2007 - Disclaimer

ORBIFLY MET'MAP TEAM :

Programmation & Développement : Alexandra Zaïnal
Sur une idée originale de : Baudouin d'Aumeries
Assistance à la programmation : Marc-Olivier Méhu
Soutien technique & logistique : Manuel Goepfert

Contact : metmap@orbifly.com




SOURCES & CREDITS :

   NOAA